Forside
METAR-TAF:

METAR-TAF

Lufthavne :

Minneapolis, Minnesota, USA

Breddekreds: 44-52-59N, længdekreds: 093-13-44W, højde: 256 m

Aktuelle vejr

Denne rapport blev lavet for 47 minutter siden, kl. 10:53 UTC
Vind 4 kt fra sydøst
Temperatur 18°C
Fugtighed 77%
Tryk 1017 hPa
Sigt: 16.1 km
Nogle få skyer i en højde af 25000 ft

METAR: KMSP 121053Z 14004KT 10SM FEW250 18/14 A3002 RMK AO2 SLP162 T01780139

Tid: 06:40 (11:40 UTC)

Vejrudsigter

Denne rapport blev lavet for 20 minutter siden, kl. 11:20 UTC
Foreløbig gælder fra 12 på 12 UTC til 13 på 18 UTC
Vind 7 kt fra sydsydøst
Sigt: 10 km
Nogle få skyer i en højde af 25000 ft
Midlertidig
fra 12 på 14 UTC til 12 på 16 UTC
Sigt: 9.7 km
Spredte skyer i en højde af 3500 ft
Brudte skyer i en højde af 6000 ft, Cumulonimbus.
tordenbyger, let regn
Fra 12 på 1600 UTC
Vind 10 kt fra sydøst
Sigt: 10 km
Brudte skyer i en højde af 10000 ft

TAF: KMSP 121120Z 1212/1318 15007KT P6SM FEW250 TEMPO 1214/1216 6SM -TSRA SCT035 BKN060CB FM121600 14010KT P6SM BKN100

Vejrobservationer og prognoser fra mere end 4000 lufthavne (METAR og TAF).

De gule og røde prikker repræsenterer de meteorologiske stationer.

Flyt musen over at se navnet på stationen.

Så klik over at se vejr observationer og prognoser.

At skifte det kort: Klik på de grønne knapper med et sort kors for at zoome ind; på den grønne knap med en bindestreg for at zoome ud; eller på de grønne pile for tilstødende kort.


METAR-TAF: